sensor_id;sensor_type;location;lat;lon;timestamp;P1;durP1;ratioP1;P2;durP2;ratioP2
8421;SDS011;4248;48.196;10.924;2024-01-27T00:01:04;4.30;;;1.57;;
8421;SDS011;4248;48.196;10.924;2024-01-27T00:03:30;5.10;;;1.40;;
8421;SDS011;4248;48.196;10.924;2024-01-27T00:05:55;4.93;;;1.33;;
8421;SDS011;4248;48.196;10.924;2024-01-27T00:08:21;5.30;;;1.70;;
8421;SDS011;4248;48.196;10.924;2024-01-27T00:10:47;8.93;;;2.27;;
8421;SDS011;4248;48.196;10.924;2024-01-27T00:13:12;4.83;;;1.80;;
8421;SDS011;4248;48.196;10.924;2024-01-27T00:15:38;5.17;;;1.80;;
8421;SDS011;4248;48.196;10.924;2024-01-27T00:18:04;8.60;;;2.70;;
8421;SDS011;4248;48.196;10.924;2024-01-27T00:20:29;6.87;;;3.17;;
8421;SDS011;4248;48.196;10.924;2024-01-27T00:22:55;12.87;;;3.93;;
8421;SDS011;4248;48.196;10.924;2024-01-27T00:25:20;11.13;;;4.30;;
8421;SDS011;4248;48.196;10.924;2024-01-27T00:27:46;17.87;;;3.93;;
8421;SDS011;4248;48.196;10.924;2024-01-27T00:30:11;12.20;;;4.90;;
8421;SDS011;4248;48.196;10.924;2024-01-27T00:32:37;10.10;;;4.72;;
8421;SDS011;4248;48.196;10.924;2024-01-27T00:35:03;11.40;;;4.57;;
8421;SDS011;4248;48.196;10.924;2024-01-27T00:37:29;11.50;;;4.83;;
8421;SDS011;4248;48.196;10.924;2024-01-27T00:39:54;8.77;;;3.90;;
8421;SDS011;4248;48.196;10.924;2024-01-27T00:42:20;9.37;;;4.80;;
8421;SDS011;4248;48.196;10.924;2024-01-27T00:44:49;10.60;;;4.70;;
8421;SDS011;4248;48.196;10.924;2024-01-27T00:47:15;8.18;;;3.78;;
8421;SDS011;4248;48.196;10.924;2024-01-27T00:49:40;8.63;;;3.67;;
8421;SDS011;4248;48.196;10.924;2024-01-27T00:52:06;8.60;;;3.83;;
8421;SDS011;4248;48.196;10.924;2024-01-27T00:54:31;8.83;;;3.47;;
8421;SDS011;4248;48.196;10.924;2024-01-27T00:56:57;8.37;;;3.33;;
8421;SDS011;4248;48.196;10.924;2024-01-27T00:59:22;11.50;;;4.30;;
8421;SDS011;4248;48.196;10.924;2024-01-27T01:01:48;9.40;;;4.47;;
8421;SDS011;4248;48.196;10.924;2024-01-27T01:04:14;9.15;;;4.40;;
8421;SDS011;4248;48.196;10.924;2024-01-27T01:06:40;9.20;;;4.77;;
8421;SDS011;4248;48.196;10.924;2024-01-27T01:09:05;7.30;;;3.37;;
8421;SDS011;4248;48.196;10.924;2024-01-27T01:11:31;9.20;;;3.80;;
8421;SDS011;4248;48.196;10.924;2024-01-27T01:13:57;6.97;;;3.20;;
8421;SDS011;4248;48.196;10.924;2024-01-27T01:16:22;6.90;;;3.63;;
8421;SDS011;4248;48.196;10.924;2024-01-27T01:18:48;6.80;;;4.03;;
8421;SDS011;4248;48.196;10.924;2024-01-27T01:21:13;9.93;;;3.50;;
8421;SDS011;4248;48.196;10.924;2024-01-27T01:23:39;9.97;;;2.73;;
8421;SDS011;4248;48.196;10.924;2024-01-27T01:26:04;5.50;;;3.30;;
8421;SDS011;4248;48.196;10.924;2024-01-27T01:28:30;6.87;;;3.37;;
8421;SDS011;4248;48.196;10.924;2024-01-27T01:30:57;9.80;;;3.70;;
8421;SDS011;4248;48.196;10.924;2024-01-27T01:33:22;8.73;;;3.50;;
8421;SDS011;4248;48.196;10.924;2024-01-27T01:35:48;6.03;;;3.10;;
8421;SDS011;4248;48.196;10.924;2024-01-27T01:38:13;13.30;;;3.13;;
8421;SDS011;4248;48.196;10.924;2024-01-27T01:40:39;4.50;;;2.73;;
8421;SDS011;4248;48.196;10.924;2024-01-27T01:43:09;6.93;;;3.23;;
8421;SDS011;4248;48.196;10.924;2024-01-27T01:45:36;6.45;;;2.65;;
8421;SDS011;4248;48.196;10.924;2024-01-27T01:48:01;8.10;;;3.20;;
8421;SDS011;4248;48.196;10.924;2024-01-27T01:50:27;5.40;;;2.30;;
8421;SDS011;4248;48.196;10.924;2024-01-27T01:52:53;3.80;;;2.07;;
8421;SDS011;4248;48.196;10.924;2024-01-27T01:55:19;6.30;;;1.98;;
8421;SDS011;4248;48.196;10.924;2024-01-27T01:57:45;5.33;;;2.17;;
8421;SDS011;4248;48.196;10.924;2024-01-27T02:00:11;12.18;;;2.00;;
8421;SDS011;4248;48.196;10.924;2024-01-27T02:02:38;4.88;;;1.90;;
8421;SDS011;4248;48.196;10.924;2024-01-27T02:05:03;3.40;;;1.90;;
8421;SDS011;4248;48.196;10.924;2024-01-27T02:07:29;4.63;;;2.17;;
8421;SDS011;4248;48.196;10.924;2024-01-27T02:09:55;4.50;;;2.20;;
8421;SDS011;4248;48.196;10.924;2024-01-27T02:12:20;5.30;;;2.33;;
8421;SDS011;4248;48.196;10.924;2024-01-27T02:14:46;8.60;;;2.13;;
8421;SDS011;4248;48.196;10.924;2024-01-27T02:17:11;10.67;;;2.60;;
8421;SDS011;4248;48.196;10.924;2024-01-27T02:19:37;4.83;;;2.07;;
8421;SDS011;4248;48.196;10.924;2024-01-27T02:22:02;3.57;;;1.93;;
8421;SDS011;4248;48.196;10.924;2024-01-27T02:24:28;4.40;;;1.97;;
8421;SDS011;4248;48.196;10.924;2024-01-27T02:26:54;6.30;;;2.10;;
8421;SDS011;4248;48.196;10.924;2024-01-27T02:29:19;5.17;;;2.07;;
8421;SDS011;4248;48.196;10.924;2024-01-27T02:31:45;2.90;;;1.60;;
8421;SDS011;4248;48.196;10.924;2024-01-27T02:34:10;9.30;;;2.70;;
8421;SDS011;4248;48.196;10.924;2024-01-27T02:36:36;6.93;;;2.20;;
8421;SDS011;4248;48.196;10.924;2024-01-27T02:39:01;5.63;;;2.23;;
8421;SDS011;4248;48.196;10.924;2024-01-27T02:41:27;5.80;;;2.33;;
8421;SDS011;4248;48.196;10.924;2024-01-27T02:43:52;11.90;;;2.10;;
8421;SDS011;4248;48.196;10.924;2024-01-27T02:46:18;9.80;;;1.90;;
8421;SDS011;4248;48.196;10.924;2024-01-27T02:48:44;5.20;;;1.97;;
8421;SDS011;4248;48.196;10.924;2024-01-27T02:51:09;8.63;;;2.00;;
8421;SDS011;4248;48.196;10.924;2024-01-27T02:53:35;7.90;;;2.00;;
8421;SDS011;4248;48.196;10.924;2024-01-27T02:56:01;4.03;;;1.90;;
8421;SDS011;4248;48.196;10.924;2024-01-27T02:58:27;8.15;;;1.70;;
8421;SDS011;4248;48.196;10.924;2024-01-27T03:00:52;7.47;;;1.97;;
8421;SDS011;4248;48.196;10.924;2024-01-27T03:03:18;7.30;;;2.20;;
8421;SDS011;4248;48.196;10.924;2024-01-27T03:05:44;4.80;;;1.70;;
8421;SDS011;4248;48.196;10.924;2024-01-27T03:08:09;3.37;;;1.80;;
8421;SDS011;4248;48.196;10.924;2024-01-27T03:10:35;3.40;;;1.80;;
8421;SDS011;4248;48.196;10.924;2024-01-27T03:13:01;3.60;;;2.03;;
8421;SDS011;4248;48.196;10.924;2024-01-27T03:15:26;3.60;;;2.33;;
8421;SDS011;4248;48.196;10.924;2024-01-27T03:17:52;6.73;;;2.00;;
8421;SDS011;4248;48.196;10.924;2024-01-27T03:20:17;7.77;;;2.57;;
8421;SDS011;4248;48.196;10.924;2024-01-27T03:22:43;7.27;;;2.00;;
8421;SDS011;4248;48.196;10.924;2024-01-27T03:25:09;3.60;;;1.47;;
8421;SDS011;4248;48.196;10.924;2024-01-27T03:27:35;9.15;;;2.25;;
8421;SDS011;4248;48.196;10.924;2024-01-27T03:30:01;9.40;;;2.03;;
8421;SDS011;4248;48.196;10.924;2024-01-27T03:32:28;7.32;;;2.30;;
8421;SDS011;4248;48.196;10.924;2024-01-27T03:34:56;4.00;;;1.98;;
8421;SDS011;4248;48.196;10.924;2024-01-27T03:37:23;12.65;;;2.17;;
8421;SDS011;4248;48.196;10.924;2024-01-27T03:39:48;4.60;;;1.90;;
8421;SDS011;4248;48.196;10.924;2024-01-27T03:42:14;4.60;;;2.20;;
8421;SDS011;4248;48.196;10.924;2024-01-27T03:44:39;10.47;;;2.20;;
8421;SDS011;4248;48.196;10.924;2024-01-27T03:47:05;5.53;;;2.63;;
8421;SDS011;4248;48.196;10.924;2024-01-27T03:49:30;5.93;;;2.40;;
8421;SDS011;4248;48.196;10.924;2024-01-27T03:51:56;7.43;;;2.50;;
8421;SDS011;4248;48.196;10.924;2024-01-27T03:54:21;9.77;;;2.70;;
8421;SDS011;4248;48.196;10.924;2024-01-27T03:56:47;7.57;;;2.97;;
8421;SDS011;4248;48.196;10.924;2024-01-27T03:59:12;5.80;;;2.43;;
8421;SDS011;4248;48.196;10.924;2024-01-27T04:01:38;7.60;;;2.73;;
8421;SDS011;4248;48.196;10.924;2024-01-27T04:04:04;4.57;;;2.53;;
8421;SDS011;4248;48.196;10.924;2024-01-27T04:06:35;7.80;;;3.30;;
8421;SDS011;4248;48.196;10.924;2024-01-27T04:09:01;7.03;;;2.90;;
8421;SDS011;4248;48.196;10.924;2024-01-27T04:11:28;10.85;;;3.75;;
8421;SDS011;4248;48.196;10.924;2024-01-27T04:13:53;8.53;;;3.50;;
8421;SDS011;4248;48.196;10.924;2024-01-27T04:16:19;5.90;;;2.87;;
8421;SDS011;4248;48.196;10.924;2024-01-27T04:18:44;6.80;;;2.90;;
8421;SDS011;4248;48.196;10.924;2024-01-27T04:21:10;10.60;;;3.17;;
8421;SDS011;4248;48.196;10.924;2024-01-27T04:23:35;9.40;;;2.67;;
8421;SDS011;4248;48.196;10.924;2024-01-27T04:26:01;9.83;;;3.57;;
8421;SDS011;4248;48.196;10.924;2024-01-27T04:28:27;7.70;;;2.90;;
8421;SDS011;4248;48.196;10.924;2024-01-27T04:30:55;7.35;;;2.83;;
8421;SDS011;4248;48.196;10.924;2024-01-27T04:33:21;6.30;;;3.00;;
8421;SDS011;4248;48.196;10.924;2024-01-27T04:35:47;11.93;;;3.38;;
8421;SDS011;4248;48.196;10.924;2024-01-27T04:38:13;7.40;;;3.77;;
8421;SDS011;4248;48.196;10.924;2024-01-27T04:40:38;5.90;;;2.97;;
8421;SDS011;4248;48.196;10.924;2024-01-27T04:43:04;8.80;;;3.43;;
8421;SDS011;4248;48.196;10.924;2024-01-27T04:45:29;6.40;;;2.83;;
8421;SDS011;4248;48.196;10.924;2024-01-27T04:47:55;10.83;;;3.40;;
8421;SDS011;4248;48.196;10.924;2024-01-27T04:50:20;10.20;;;3.30;;
8421;SDS011;4248;48.196;10.924;2024-01-27T04:52:46;6.90;;;2.80;;
8421;SDS011;4248;48.196;10.924;2024-01-27T04:55:11;7.77;;;3.27;;
8421;SDS011;4248;48.196;10.924;2024-01-27T04:57:37;5.43;;;3.17;;
8421;SDS011;4248;48.196;10.924;2024-01-27T05:00:03;5.33;;;2.80;;
8421;SDS011;4248;48.196;10.924;2024-01-27T05:02:32;15.98;;;3.45;;
8421;SDS011;4248;48.196;10.924;2024-01-27T05:04:58;8.55;;;3.72;;
8421;SDS011;4248;48.196;10.924;2024-01-27T05:07:24;19.50;;;3.53;;
8421;SDS011;4248;48.196;10.924;2024-01-27T05:09:49;7.33;;;3.77;;
8421;SDS011;4248;48.196;10.924;2024-01-27T05:12:15;4.97;;;2.93;;
8421;SDS011;4248;48.196;10.924;2024-01-27T05:14:44;14.43;;;3.67;;
8421;SDS011;4248;48.196;10.924;2024-01-27T05:17:10;8.98;;;3.58;;
8421;SDS011;4248;48.196;10.924;2024-01-27T05:19:36;6.20;;;3.87;;
8421;SDS011;4248;48.196;10.924;2024-01-27T05:22:01;11.33;;;3.20;;
8421;SDS011;4248;48.196;10.924;2024-01-27T05:24:27;11.97;;;3.90;;
8421;SDS011;4248;48.196;10.924;2024-01-27T05:26:52;9.87;;;3.83;;
8421;SDS011;4248;48.196;10.924;2024-01-27T05:29:18;7.20;;;2.90;;
8421;SDS011;4248;48.196;10.924;2024-01-27T05:31:43;18.43;;;4.67;;
8421;SDS011;4248;48.196;10.924;2024-01-27T05:34:10;11.33;;;3.30;;
8421;SDS011;4248;48.196;10.924;2024-01-27T05:36:35;7.35;;;4.13;;
8421;SDS011;4248;48.196;10.924;2024-01-27T05:39:01;9.23;;;4.10;;
8421;SDS011;4248;48.196;10.924;2024-01-27T05:41:29;12.73;;;3.67;;
8421;SDS011;4248;48.196;10.924;2024-01-27T05:43:55;7.97;;;4.67;;
8421;SDS011;4248;48.196;10.924;2024-01-27T05:46:24;7.65;;;3.60;;
8421;SDS011;4248;48.196;10.924;2024-01-27T05:48:50;6.25;;;3.13;;
8421;SDS011;4248;48.196;10.924;2024-01-27T05:51:18;10.02;;;4.28;;
8421;SDS011;4248;48.196;10.924;2024-01-27T05:53:44;9.93;;;4.10;;
8421;SDS011;4248;48.196;10.924;2024-01-27T05:56:10;11.20;;;3.63;;
8421;SDS011;4248;48.196;10.924;2024-01-27T05:58:36;11.30;;;3.67;;
8421;SDS011;4248;48.196;10.924;2024-01-27T06:01:02;7.57;;;3.60;;
8421;SDS011;4248;48.196;10.924;2024-01-27T06:03:28;9.87;;;4.07;;
8421;SDS011;4248;48.196;10.924;2024-01-27T06:05:53;19.97;;;4.13;;
8421;SDS011;4248;48.196;10.924;2024-01-27T06:08:19;11.60;;;4.47;;
8421;SDS011;4248;48.196;10.924;2024-01-27T06:10:45;9.60;;;4.87;;
8421;SDS011;4248;48.196;10.924;2024-01-27T06:13:11;7.68;;;3.72;;
8421;SDS011;4248;48.196;10.924;2024-01-27T06:15:36;8.07;;;3.73;;
8421;SDS011;4248;48.196;10.924;2024-01-27T06:18:02;10.87;;;3.70;;
8421;SDS011;4248;48.196;10.924;2024-01-27T06:20:28;7.33;;;3.63;;
8421;SDS011;4248;48.196;10.924;2024-01-27T06:22:53;11.17;;;4.37;;
8421;SDS011;4248;48.196;10.924;2024-01-27T06:25:19;8.50;;;4.00;;
8421;SDS011;4248;48.196;10.924;2024-01-27T06:27:45;9.23;;;4.22;;
8421;SDS011;4248;48.196;10.924;2024-01-27T06:30:11;18.47;;;5.70;;
8421;SDS011;4248;48.196;10.924;2024-01-27T06:32:37;20.95;;;4.65;;
8421;SDS011;4248;48.196;10.924;2024-01-27T06:35:03;14.90;;;4.50;;
8421;SDS011;4248;48.196;10.924;2024-01-27T06:37:29;13.55;;;4.80;;
8421;SDS011;4248;48.196;10.924;2024-01-27T06:39:55;13.70;;;6.77;;
8421;SDS011;4248;48.196;10.924;2024-01-27T06:42:20;15.57;;;5.63;;
8421;SDS011;4248;48.196;10.924;2024-01-27T06:44:46;17.63;;;6.67;;
8421;SDS011;4248;48.196;10.924;2024-01-27T06:47:11;17.37;;;6.83;;
8421;SDS011;4248;48.196;10.924;2024-01-27T06:49:37;15.10;;;7.50;;
8421;SDS011;4248;48.196;10.924;2024-01-27T06:52:02;19.53;;;7.10;;
8421;SDS011;4248;48.196;10.924;2024-01-27T06:54:28;13.60;;;6.53;;
8421;SDS011;4248;48.196;10.924;2024-01-27T06:56:54;16.40;;;6.63;;
8421;SDS011;4248;48.196;10.924;2024-01-27T06:59:19;20.10;;;6.80;;
8421;SDS011;4248;48.196;10.924;2024-01-27T07:01:48;11.33;;;5.43;;
8421;SDS011;4248;48.196;10.924;2024-01-27T07:04:14;21.05;;;6.40;;
8421;SDS011;4248;48.196;10.924;2024-01-27T07:06:40;14.40;;;6.60;;
8421;SDS011;4248;48.196;10.924;2024-01-27T07:09:06;14.53;;;6.23;;
8421;SDS011;4248;48.196;10.924;2024-01-27T07:11:34;15.85;;;5.72;;
8421;SDS011;4248;48.196;10.924;2024-01-27T07:14:01;15.93;;;6.63;;
8421;SDS011;4248;48.196;10.924;2024-01-27T07:16:27;16.27;;;8.27;;
8421;SDS011;4248;48.196;10.924;2024-01-27T07:18:53;15.27;;;7.20;;
8421;SDS011;4248;48.196;10.924;2024-01-27T07:21:18;22.00;;;7.83;;
8421;SDS011;4248;48.196;10.924;2024-01-27T07:23:44;21.30;;;7.43;;
8421;SDS011;4248;48.196;10.924;2024-01-27T07:26:10;22.67;;;7.20;;
8421;SDS011;4248;48.196;10.924;2024-01-27T07:28:36;16.08;;;7.95;;
8421;SDS011;4248;48.196;10.924;2024-01-27T07:31:02;14.05;;;6.32;;
8421;SDS011;4248;48.196;10.924;2024-01-27T07:33:28;14.73;;;5.60;;
8421;SDS011;4248;48.196;10.924;2024-01-27T07:35:54;17.63;;;6.80;;
8421;SDS011;4248;48.196;10.924;2024-01-27T07:38:19;15.10;;;5.67;;
8421;SDS011;4248;48.196;10.924;2024-01-27T07:40:45;11.27;;;6.63;;
8421;SDS011;4248;48.196;10.924;2024-01-27T07:43:11;12.13;;;6.13;;
8421;SDS011;4248;48.196;10.924;2024-01-27T07:45:36;17.30;;;6.47;;
8421;SDS011;4248;48.196;10.924;2024-01-27T07:48:02;17.50;;;6.87;;
8421;SDS011;4248;48.196;10.924;2024-01-27T07:50:28;16.30;;;7.03;;
8421;SDS011;4248;48.196;10.924;2024-01-27T07:52:53;17.33;;;6.80;;
8421;SDS011;4248;48.196;10.924;2024-01-27T07:55:19;15.30;;;6.37;;
8421;SDS011;4248;48.196;10.924;2024-01-27T07:57:45;11.63;;;6.10;;
8421;SDS011;4248;48.196;10.924;2024-01-27T08:00:10;11.60;;;6.43;;
8421;SDS011;4248;48.196;10.924;2024-01-27T08:02:36;13.20;;;7.70;;
8421;SDS011;4248;48.196;10.924;2024-01-27T08:05:02;18.93;;;7.77;;
8421;SDS011;4248;48.196;10.924;2024-01-27T08:07:28;21.75;;;9.63;;
8421;SDS011;4248;48.196;10.924;2024-01-27T08:09:54;20.15;;;7.72;;
8421;SDS011;4248;48.196;10.924;2024-01-27T08:12:22;15.82;;;7.85;;
8421;SDS011;4248;48.196;10.924;2024-01-27T08:14:47;14.87;;;8.23;;
8421;SDS011;4248;48.196;10.924;2024-01-27T08:17:13;22.73;;;9.07;;
8421;SDS011;4248;48.196;10.924;2024-01-27T08:19:39;16.40;;;9.57;;
8421;SDS011;4248;48.196;10.924;2024-01-27T08:22:04;15.50;;;8.77;;
8421;SDS011;4248;48.196;10.924;2024-01-27T08:24:30;19.27;;;9.13;;
8421;SDS011;4248;48.196;10.924;2024-01-27T08:26:56;13.60;;;8.10;;
8421;SDS011;4248;48.196;10.924;2024-01-27T08:29:23;22.73;;;8.80;;
8421;SDS011;4248;48.196;10.924;2024-01-27T08:31:48;27.60;;;8.40;;
8421;SDS011;4248;48.196;10.924;2024-01-27T08:34:14;16.27;;;7.53;;
8421;SDS011;4248;48.196;10.924;2024-01-27T08:36:40;17.33;;;6.83;;
8421;SDS011;4248;48.196;10.924;2024-01-27T08:39:05;12.23;;;6.03;;
8421;SDS011;4248;48.196;10.924;2024-01-27T08:41:34;12.73;;;5.65;;
8421;SDS011;4248;48.196;10.924;2024-01-27T08:43:59;14.57;;;5.97;;
8421;SDS011;4248;48.196;10.924;2024-01-27T08:46:25;12.40;;;5.30;;
8421;SDS011;4248;48.196;10.924;2024-01-27T08:48:50;19.17;;;5.13;;
8421;SDS011;4248;48.196;10.924;2024-01-27T08:51:16;12.23;;;5.60;;
8421;SDS011;4248;48.196;10.924;2024-01-27T08:53:43;12.55;;;4.88;;
8421;SDS011;4248;48.196;10.924;2024-01-27T08:56:15;12.10;;;4.60;;
8421;SDS011;4248;48.196;10.924;2024-01-27T08:58:43;14.77;;;4.05;;
8421;SDS011;4248;48.196;10.924;2024-01-27T09:01:09;13.50;;;4.40;;
8421;SDS011;4248;48.196;10.924;2024-01-27T09:03:37;9.13;;;3.80;;
8421;SDS011;4248;48.196;10.924;2024-01-27T09:06:04;7.88;;;3.72;;
8421;SDS011;4248;48.196;10.924;2024-01-27T09:08:30;11.60;;;3.43;;
8421;SDS011;4248;48.196;10.924;2024-01-27T09:10:55;16.80;;;3.90;;
8421;SDS011;4248;48.196;10.924;2024-01-27T09:13:21;9.20;;;3.30;;
8421;SDS011;4248;48.196;10.924;2024-01-27T09:15:46;10.03;;;3.80;;
8421;SDS011;4248;48.196;10.924;2024-01-27T09:18:13;7.97;;;4.18;;
8421;SDS011;4248;48.196;10.924;2024-01-27T09:20:40;9.30;;;3.47;;
8421;SDS011;4248;48.196;10.924;2024-01-27T09:23:05;11.40;;;3.83;;
8421;SDS011;4248;48.196;10.924;2024-01-27T09:25:31;12.77;;;3.50;;
8421;SDS011;4248;48.196;10.924;2024-01-27T09:27:56;14.40;;;4.17;;
8421;SDS011;4248;48.196;10.924;2024-01-27T09:30:25;8.93;;;3.77;;
8421;SDS011;4248;48.196;10.924;2024-01-27T09:32:51;12.13;;;3.60;;
8421;SDS011;4248;48.196;10.924;2024-01-27T09:35:17;12.70;;;3.40;;
8421;SDS011;4248;48.196;10.924;2024-01-27T09:37:42;11.40;;;3.70;;
8421;SDS011;4248;48.196;10.924;2024-01-27T09:40:09;11.43;;;3.80;;
8421;SDS011;4248;48.196;10.924;2024-01-27T09:42:35;10.53;;;3.27;;
8421;SDS011;4248;48.196;10.924;2024-01-27T09:45:06;8.40;;;2.93;;
8421;SDS011;4248;48.196;10.924;2024-01-27T09:47:34;5.70;;;2.65;;
8421;SDS011;4248;48.196;10.924;2024-01-27T09:50:01;10.93;;;2.77;;
8421;SDS011;4248;48.196;10.924;2024-01-27T09:52:26;11.60;;;2.83;;
8421;SDS011;4248;48.196;10.924;2024-01-27T09:54:52;12.60;;;3.00;;
8421;SDS011;4248;48.196;10.924;2024-01-27T09:57:18;7.20;;;2.53;;
8421;SDS011;4248;48.196;10.924;2024-01-27T09:59:45;8.97;;;2.77;;
8421;SDS011;4248;48.196;10.924;2024-01-27T10:02:12;4.70;;;2.57;;
8421;SDS011;4248;48.196;10.924;2024-01-27T10:04:40;6.63;;;2.10;;
8421;SDS011;4248;48.196;10.924;2024-01-27T10:07:06;11.57;;;2.57;;
8421;SDS011;4248;48.196;10.924;2024-01-27T10:09:32;7.83;;;2.93;;
8421;SDS011;4248;48.196;10.924;2024-01-27T10:11:58;10.20;;;3.20;;
8421;SDS011;4248;48.196;10.924;2024-01-27T10:14:26;8.27;;;3.00;;
8421;SDS011;4248;48.196;10.924;2024-01-27T10:17:03;11.57;;;3.53;;
8421;SDS011;4248;48.196;10.924;2024-01-27T10:19:29;5.43;;;2.50;;
8421;SDS011;4248;48.196;10.924;2024-01-27T10:21:59;16.80;;;3.17;;
8421;SDS011;4248;48.196;10.924;2024-01-27T10:24:31;8.53;;;3.07;;
8421;SDS011;4248;48.196;10.924;2024-01-27T10:27:00;8.77;;;2.90;;
8421;SDS011;4248;48.196;10.924;2024-01-27T10:29:26;15.40;;;3.20;;
8421;SDS011;4248;48.196;10.924;2024-01-27T10:31:53;7.03;;;3.20;;
8421;SDS011;4248;48.196;10.924;2024-01-27T10:34:21;7.80;;;4.00;;
8421;SDS011;4248;48.196;10.924;2024-01-27T10:36:47;16.83;;;5.33;;
8421;SDS011;4248;48.196;10.924;2024-01-27T10:39:16;9.60;;;2.70;;
8421;SDS011;4248;48.196;10.924;2024-01-27T10:41:46;10.27;;;3.03;;
8421;SDS011;4248;48.196;10.924;2024-01-27T10:44:13;6.50;;;2.87;;
8421;SDS011;4248;48.196;10.924;2024-01-27T10:46:43;5.50;;;2.30;;
8421;SDS011;4248;48.196;10.924;2024-01-27T10:49:20;7.10;;;3.30;;
8421;SDS011;4248;48.196;10.924;2024-01-27T10:51:54;15.50;;;3.90;;
8421;SDS011;4248;48.196;10.924;2024-01-27T10:54:27;9.20;;;3.50;;
8421;SDS011;4248;48.196;10.924;2024-01-27T10:56:53;8.90;;;3.17;;
8421;SDS011;4248;48.196;10.924;2024-01-27T10:59:21;9.07;;;2.77;;
8421;SDS011;4248;48.196;10.924;2024-01-27T11:01:48;10.33;;;3.90;;
8421;SDS011;4248;48.196;10.924;2024-01-27T11:04:18;7.23;;;3.00;;
8421;SDS011;4248;48.196;10.924;2024-01-27T11:06:45;9.50;;;3.10;;
8421;SDS011;4248;48.196;10.924;2024-01-27T11:09:13;10.80;;;3.70;;
8421;SDS011;4248;48.196;10.924;2024-01-27T11:11:39;13.23;;;3.50;;
8421;SDS011;4248;48.196;10.924;2024-01-27T11:14:07;14.33;;;3.50;;
8421;SDS011;4248;48.196;10.924;2024-01-27T11:16:34;13.33;;;3.50;;
8421;SDS011;4248;48.196;10.924;2024-01-27T11:19:00;11.73;;;3.60;;
8421;SDS011;4248;48.196;10.924;2024-01-27T11:21:26;11.67;;;3.63;;
8421;SDS011;4248;48.196;10.924;2024-01-27T11:23:51;9.57;;;3.50;;
8421;SDS011;4248;48.196;10.924;2024-01-27T11:26:20;6.67;;;2.50;;
8421;SDS011;4248;48.196;10.924;2024-01-27T11:28:48;9.37;;;3.20;;
8421;SDS011;4248;48.196;10.924;2024-01-27T11:31:15;13.77;;;3.83;;
8421;SDS011;4248;48.196;10.924;2024-01-27T11:33:46;10.00;;;3.40;;
8421;SDS011;4248;48.196;10.924;2024-01-27T11:36:20;15.57;;;3.80;;
8421;SDS011;4248;48.196;10.924;2024-01-27T11:38:47;12.73;;;4.83;;
8421;SDS011;4248;48.196;10.924;2024-01-27T11:41:13;8.83;;;3.10;;
8421;SDS011;4248;48.196;10.924;2024-01-27T11:43:51;13.30;;;4.00;;
8421;SDS011;4248;48.196;10.924;2024-01-27T11:46:17;12.67;;;3.70;;
8421;SDS011;4248;48.196;10.924;2024-01-27T11:48:45;8.07;;;3.53;;
8421;SDS011;4248;48.196;10.924;2024-01-27T11:51:11;12.83;;;3.13;;
8421;SDS011;4248;48.196;10.924;2024-01-27T11:53:37;9.87;;;5.57;;
8421;SDS011;4248;48.196;10.924;2024-01-27T11:56:03;7.57;;;3.20;;
8421;SDS011;4248;48.196;10.924;2024-01-27T11:58:29;23.90;;;13.20;;
8421;SDS011;4248;48.196;10.924;2024-01-27T12:00:56;19.83;;;7.80;;
8421;SDS011;4248;48.196;10.924;2024-01-27T12:03:23;12.80;;;5.33;;
8421;SDS011;4248;48.196;10.924;2024-01-27T12:05:49;10.07;;;3.00;;
8421;SDS011;4248;48.196;10.924;2024-01-27T12:08:16;12.17;;;4.70;;
8421;SDS011;4248;48.196;10.924;2024-01-27T12:10:42;10.00;;;3.07;;
8421;SDS011;4248;48.196;10.924;2024-01-27T12:13:08;14.13;;;3.10;;
8421;SDS011;4248;48.196;10.924;2024-01-27T12:15:34;9.57;;;3.17;;
8421;SDS011;4248;48.196;10.924;2024-01-27T12:17:59;7.27;;;3.50;;
8421;SDS011;4248;48.196;10.924;2024-01-27T12:20:25;10.33;;;2.83;;
8421;SDS011;4248;48.196;10.924;2024-01-27T12:23:01;5.23;;;2.50;;
8421;SDS011;4248;48.196;10.924;2024-01-27T12:25:30;10.93;;;3.33;;
8421;SDS011;4248;48.196;10.924;2024-01-27T12:27:56;8.70;;;2.50;;
8421;SDS011;4248;48.196;10.924;2024-01-27T12:30:25;8.30;;;2.80;;
8421;SDS011;4248;48.196;10.924;2024-01-27T12:32:51;5.53;;;2.60;;
8421;SDS011;4248;48.196;10.924;2024-01-27T12:35:17;7.00;;;3.73;;
8421;SDS011;4248;48.196;10.924;2024-01-27T12:37:43;7.73;;;3.83;;
8421;SDS011;4248;48.196;10.924;2024-01-27T12:40:18;6.87;;;2.90;;
8421;SDS011;4248;48.196;10.924;2024-01-27T12:42:46;11.97;;;3.90;;
8421;SDS011;4248;48.196;10.924;2024-01-27T12:45:12;15.07;;;3.43;;
8421;SDS011;4248;48.196;10.924;2024-01-27T12:47:38;10.73;;;4.10;;
8421;SDS011;4248;48.196;10.924;2024-01-27T12:50:05;8.60;;;3.87;;
8421;SDS011;4248;48.196;10.924;2024-01-27T12:52:31;12.50;;;4.30;;
8421;SDS011;4248;48.196;10.924;2024-01-27T12:54:57;7.43;;;2.83;;
8421;SDS011;4248;48.196;10.924;2024-01-27T12:57:22;12.23;;;3.60;;
8421;SDS011;4248;48.196;10.924;2024-01-27T12:59:48;8.77;;;2.70;;
8421;SDS011;4248;48.196;10.924;2024-01-27T13:02:14;6.03;;;2.63;;
8421;SDS011;4248;48.196;10.924;2024-01-27T13:04:40;7.40;;;2.57;;
8421;SDS011;4248;48.196;10.924;2024-01-27T13:07:06;11.40;;;3.10;;
8421;SDS011;4248;48.196;10.924;2024-01-27T13:09:32;6.63;;;2.87;;
8421;SDS011;4248;48.196;10.924;2024-01-27T13:11:57;9.60;;;2.70;;
8421;SDS011;4248;48.196;10.924;2024-01-27T13:14:23;5.40;;;2.30;;
8421;SDS011;4248;48.196;10.924;2024-01-27T13:16:48;6.67;;;2.40;;
8421;SDS011;4248;48.196;10.924;2024-01-27T13:19:14;5.60;;;2.00;;
8421;SDS011;4248;48.196;10.924;2024-01-27T13:21:40;8.20;;;2.23;;
8421;SDS011;4248;48.196;10.924;2024-01-27T13:24:06;5.40;;;2.20;;
8421;SDS011;4248;48.196;10.924;2024-01-27T13:26:34;7.67;;;2.10;;
8421;SDS011;4248;48.196;10.924;2024-01-27T13:29:03;8.87;;;2.27;;
8421;SDS011;4248;48.196;10.924;2024-01-27T13:31:32;10.30;;;2.23;;
8421;SDS011;4248;48.196;10.924;2024-01-27T13:33:58;7.87;;;2.67;;
8421;SDS011;4248;48.196;10.924;2024-01-27T13:36:24;3.30;;;1.70;;
8421;SDS011;4248;48.196;10.924;2024-01-27T13:38:50;5.13;;;1.80;;
8421;SDS011;4248;48.196;10.924;2024-01-27T13:41:17;11.40;;;3.17;;
8421;SDS011;4248;48.196;10.924;2024-01-27T13:43:43;8.87;;;2.73;;
8421;SDS011;4248;48.196;10.924;2024-01-27T13:46:08;9.03;;;2.60;;
8421;SDS011;4248;48.196;10.924;2024-01-27T13:48:34;4.07;;;2.13;;
8421;SDS011;4248;48.196;10.924;2024-01-27T13:51:00;4.67;;;2.00;;
8421;SDS011;4248;48.196;10.924;2024-01-27T13:53:25;5.83;;;2.17;;
8421;SDS011;4248;48.196;10.924;2024-01-27T13:55:51;16.93;;;2.23;;
8421;SDS011;4248;48.196;10.924;2024-01-27T13:58:19;4.17;;;2.30;;
8421;SDS011;4248;48.196;10.924;2024-01-27T14:00:45;7.60;;;2.27;;
8421;SDS011;4248;48.196;10.924;2024-01-27T14:03:11;6.67;;;2.37;;
8421;SDS011;4248;48.196;10.924;2024-01-27T14:05:37;6.33;;;1.93;;
8421;SDS011;4248;48.196;10.924;2024-01-27T14:08:03;8.30;;;2.10;;
8421;SDS011;4248;48.196;10.924;2024-01-27T14:10:31;7.43;;;2.97;;
8421;SDS011;4248;48.196;10.924;2024-01-27T14:12:57;12.73;;;3.00;;
8421;SDS011;4248;48.196;10.924;2024-01-27T14:15:23;5.10;;;2.10;;
8421;SDS011;4248;48.196;10.924;2024-01-27T14:17:48;4.30;;;1.80;;
8421;SDS011;4248;48.196;10.924;2024-01-27T14:20:14;9.40;;;3.03;;
8421;SDS011;4248;48.196;10.924;2024-01-27T14:22:40;5.83;;;3.00;;
8421;SDS011;4248;48.196;10.924;2024-01-27T14:25:05;9.40;;;4.53;;
8421;SDS011;4248;48.196;10.924;2024-01-27T14:27:32;11.27;;;2.40;;
8421;SDS011;4248;48.196;10.924;2024-01-27T14:29:59;16.50;;;7.07;;
8421;SDS011;4248;48.196;10.924;2024-01-27T14:32:25;5.90;;;2.47;;
8421;SDS011;4248;48.196;10.924;2024-01-27T14:34:51;8.60;;;2.37;;
8421;SDS011;4248;48.196;10.924;2024-01-27T14:37:16;5.70;;;2.43;;
8421;SDS011;4248;48.196;10.924;2024-01-27T14:39:43;9.90;;;2.57;;
8421;SDS011;4248;48.196;10.924;2024-01-27T14:42:10;11.73;;;2.97;;
8421;SDS011;4248;48.196;10.924;2024-01-27T14:44:36;10.77;;;2.47;;
8421;SDS011;4248;48.196;10.924;2024-01-27T14:47:02;6.77;;;2.77;;
8421;SDS011;4248;48.196;10.924;2024-01-27T14:49:29;10.23;;;2.50;;